Akra, North Dakota
Current Conditions -  °F | °C
As of 8:55 AM on Saturday 20 Dec 2014 (Local Time) from K2C8 Reporting Station
Haze Haze  
Wind Chill: 27°   Ceiling: 800
Heat Index: 27°   Visibility: 2.5mi
Dew Point: 27°   Wind: 0mph
Humidity: 100%   Direction: NA
Pressure: 29.99"   Gusts: NA
Location:  48.8218°N, 97.697°W
Report Text: K2C8 201455Z AUTO 00000KT 2 1/2SM BR OVC008 M03/M03 A2999 RMK AO2
Loading
Personal Weather Stations






























Interactive Weather Map New forecast layout! Learn more

10-Day Weather Forecast

Advertisements
Track Severe Weather on mobile